Arctic Taglu — CY8968 — position and weather

sailwx.info

Track history (hours):
 
Tides and Currents Weather Stations Pressure Air Temp Water Temp Dewpoint Dewpoint Depression Visibility Wind Speed Wind Dir Waves Ship Positions

Arctic Taglu

Last reported at 2014-Aug-20 19:28 UTC. Time now 2014-Aug-20 20:30 UTC.
Position N 49°09' W 123°02'.

Length 33 m; draft 6 m.

Type: Tug. MMSI: 316003483.

Date/timePositionNaut miles runAvg speedWind from/ knotsBaromVisibWave heightAir tempDewpointWater temp
2014-Aug-20 19:28N 49°09' W 123°02'0 0.0
2014-Aug-20 18:31N 49°09' W 123°02'0 0.0
2014-Aug-20 17:31N 49°09' W 123°02'0 0.0
2014-Aug-20 16:31N 49°09' W 123°02'0 0.0
2014-Aug-20 15:33N 49°09' W 123°02'0 0.0
2014-Aug-20 14:33N 49°09' W 123°02'5 5.0
2014-Aug-20 13:33N 49°07' W 123°09'6 5.9
2014-Aug-20 12:33N 49°06' W 123°18'1010.1
2014-Aug-20 11:33N 49°09' W 123°33'1111.1
2014-Aug-20 10:33N 49°13' W 123°49'5 5.2
2014-Aug-20 09:33N 49°10' W 123°56'0 0.0
2014-Aug-20 08:33N 49°10' W 123°56'5 5.1
2014-Aug-20 07:33N 49°13' W 123°50'9 8.9
2014-Aug-20 06:34N 49°10' W 123°37'10 9.7
2014-Aug-20 05:34N 49°07' W 123°23'1010.1
2014-Aug-20 04:34N 49°07' W 123°07'4 3.8
2014-Aug-20 03:33N 49°09' W 123°02'0 0.0
2014-Aug-20 02:33N 49°09' W 123°02'0 0.0
2014-Aug-20 01:33N 49°09' W 123°02'0 0.0
2014-Aug-20 00:33N 49°09' W 123°02'0 0.0
2014-Aug-19 23:33N 49°09' W 123°02'0 0.0
2014-Aug-19 22:33N 49°09' W 123°02'0 0.0
2014-Aug-19 21:33N 49°09' W 123°02'0 0.0
2014-Aug-19 20:33N 49°09' W 123°02'0 0.0
2014-Aug-19 19:33N 49°09' W 123°02'0 0.0
2014-Aug-19 18:33N 49°09' W 123°02'0 0.0
2014-Aug-19 17:33N 49°09' W 123°02'0 0.0
2014-Aug-19 16:33N 49°09' W 123°02'0 0.0
2014-Aug-19 15:33N 49°09' W 123°02'0 0.0
2014-Aug-19 14:34N 49°09' W 123°02'4 4.2
2014-Aug-19 13:33N 49°07' W 123°08'6 5.7
2014-Aug-19 12:33N 49°07' W 123°17'9 9.3
2014-Aug-19 11:33N 49°08' W 123°31'1111.4
2014-Aug-19 10:33N 49°12' W 123°47'6 6.3
2014-Aug-19 09:33N 49°10' W 123°56'0 0.0
2014-Aug-19 08:33N 49°10' W 123°56'6 6.2
2014-Aug-19 07:33N 49°13' W 123°48'9 8.8
2014-Aug-19 06:33N 49°10' W 123°35'9 9.4
2014-Aug-19 05:33N 49°07' W 123°21'10 9.8
2014-Aug-19 04:33N 49°07' W 123°06'3 3.3
2014-Aug-19 03:33N 49°09' W 123°02'0 0.0
2014-Aug-19 02:33N 49°09' W 123°02'0 0.0
2014-Aug-19 01:32N 49°09' W 123°02'0 0.0
2014-Aug-19 00:32N 49°09' W 123°02'0 0.0
2014-Aug-18 23:32N 49°09' W 123°02'0 0.0
2014-Aug-18 22:32N 49°09' W 123°02'0 0.0
2014-Aug-18 21:32N 49°09' W 123°02'0 0.0
2014-Aug-18 20:32N 49°09' W 123°02'0 0.0
2014-Aug-18 19:32N 49°09' W 123°02'0 0.0
2014-Aug-18 18:32N 49°09' W 123°02'0 0.0
2014-Aug-18 17:32N 49°09' W 123°02'0 0.0
2014-Aug-18 16:32N 49°09' W 123°02'0 0.0
2014-Aug-18 15:32N 49°09' W 123°02'0 0.0
2014-Aug-18 14:32N 49°09' W 123°02'0 0.0
2014-Aug-18 13:32N 49°09' W 123°02'0 0.0
2014-Aug-18 12:32N 49°09' W 123°02'0 0.0
2014-Aug-18 11:27N 49°09' W 123°02'0 0.0
2014-Aug-18 10:32N 49°09' W 123°02'0 0.0
2014-Aug-18 09:29N 49°09' W 123°02'0 0.0
2014-Aug-18 08:32N 49°09' W 123°02'0 0.0
2014-Aug-18 07:32N 49°09' W 123°02'0 0.0
2014-Aug-18 06:32N 49°09' W 123°02'0 0.0
2014-Aug-18 05:33N 49°09' W 123°02'0 0.0
2014-Aug-18 04:32N 49°09' W 123°02'0 0.0
2014-Aug-18 03:29N 49°09' W 123°02'0 0.0
2014-Aug-18 02:32N 49°09' W 123°02'0 0.0
2014-Aug-18 01:32N 49°09' W 123°02'0 0.0
2014-Aug-18 00:29N 49°09' W 123°02'0 0.0
2014-Aug-17 18:32N 49°09' W 123°02'0 0.0
2014-Aug-17 17:32N 49°09' W 123°02'0 0.0
2014-Aug-17 16:32N 49°09' W 123°02'0 0.0
2014-Aug-17 15:32N 49°09' W 123°02'0 0.0
2014-Aug-17 14:32N 49°09' W 123°02'0 0.0
2014-Aug-17 13:32N 49°09' W 123°02'0 0.0
2014-Aug-17 12:32N 49°09' W 123°02'0 0.0
2014-Aug-17 11:32N 49°09' W 123°02'0 0.0
2014-Aug-17 10:32N 49°09' W 123°02'0 0.0
2014-Aug-17 09:32N 49°09' W 123°02'0 0.0
2014-Aug-17 08:32N 49°09' W 123°02'0 0.0
2014-Aug-17 07:32N 49°09' W 123°02'0 0.0
2014-Aug-17 06:32N 49°09' W 123°02'0 0.0
2014-Aug-17 05:32N 49°09' W 123°02'0 0.0
2014-Aug-17 04:32N 49°09' W 123°02'0 0.0
2014-Aug-17 03:32N 49°09' W 123°02'0 0.0
2014-Aug-17 02:26N 49°09' W 123°02'0 0.0
2014-Aug-17 01:32N 49°09' W 123°02'0 0.0
2014-Aug-17 00:32N 49°09' W 123°02'0 0.0
2014-Aug-16 23:32N 49°09' W 123°02'0 0.0
2014-Aug-16 22:32N 49°09' W 123°02'0 0.0
2014-Aug-16 21:32N 49°09' W 123°02'0 0.0
2014-Aug-16 20:32N 49°09' W 123°02'0 0.0
2014-Aug-16 19:32N 49°09' W 123°02'0 0.0
2014-Aug-16 18:32N 49°09' W 123°02'0 0.0
2014-Aug-16 17:32N 49°09' W 123°02'0 0.0
2014-Aug-16 16:32N 49°09' W 123°02'0 0.0
2014-Aug-16 15:32N 49°09' W 123°02'0 0.0
2014-Aug-16 14:34N 49°09' W 123°02'5 4.8
2014-Aug-16 13:34N 49°06' W 123°09'8 7.6
2014-Aug-16 12:33N 49°06' W 123°20'9 9.4
2014-Aug-16 11:34N 49°09' W 123°34'1010.0
2014-Aug-16 10:33N 49°13' W 123°48'6 5.8
2014-Aug-16 09:34N 49°10' W 123°56'0 0.0
2014-Aug-16 08:33N 49°10' W 123°56'7 6.6
2014-Aug-16 07:33N 49°13' W 123°47'10 9.7
2014-Aug-16 06:34N 49°10' W 123°33'10 9.9
2014-Aug-16 05:33N 49°06' W 123°19'9 8.8
2014-Aug-16 04:33N 49°07' W 123°05'3 2.6
2014-Aug-16 03:34N 49°09' W 123°02'0 0.0
2014-Aug-16 02:33N 49°09' W 123°02'0 0.0
2014-Aug-16 01:34N 49°09' W 123°02'0 0.0
2014-Aug-16 00:33N 49°09' W 123°02'0 0.0
2014-Aug-15 23:34N 49°09' W 123°02'0 0.0
2014-Aug-15 22:34N 49°09' W 123°02'0 0.0
2014-Aug-15 21:34N 49°09' W 123°02'0 0.0
2014-Aug-15 20:33N 49°09' W 123°02'0 0.0
2014-Aug-15 19:34N 49°09' W 123°02'0 0.0
2014-Aug-15 18:33N 49°09' W 123°02'0 0.0
2014-Aug-15 17:34N 49°09' W 123°02'0 0.0
2014-Aug-15 16:33N 49°09' W 123°02'0 0.0
2014-Aug-15 15:34N 49°09' W 123°02'0 0.0
2014-Aug-15 14:34N 49°09' W 123°02'4 3.6
2014-Aug-15 13:34N 49°07' W 123°07'8 8.2
2014-Aug-15 12:34N 49°06' W 123°19'10 9.7
2014-Aug-15 11:33N 49°09' W 123°33'1010.0
2014-Aug-15 10:33N 49°13' W 123°48'6 5.9
2014-Aug-15 09:34N 49°10' W 123°56'0 0.0
2014-Aug-15 08:34N 49°10' W 123°56'7 6.8
2014-Aug-15 07:34N 49°12' W 123°46'10 9.6
2014-Aug-15 06:34N 49°09' W 123°31'9 9.5
2014-Aug-15 05:34N 49°07' W 123°17'9 8.6
2014-Aug-15 04:34N 49°07' W 123°04'2 1.8
2014-Aug-15 03:33N 49°09' W 123°02'0 0.0
2014-Aug-15 02:34N 49°09' W 123°02'0 0.0
2014-Aug-15 01:33N 49°09' W 123°02'0 0.0
2014-Aug-15 00:34N 49°09' W 123°02'0 0.0
2014-Aug-14 23:34N 49°09' W 123°02'0 0.0
2014-Aug-14 22:34N 49°09' W 123°02'0 0.0
2014-Aug-14 21:33N 49°09' W 123°02'0 0.0
2014-Aug-14 20:34N 49°09' W 123°02'0 0.0
2014-Aug-14 19:34N 49°09' W 123°02'0 0.0
2014-Aug-14 18:33N 49°09' W 123°02'0 0.0
2014-Aug-14 17:34N 49°09' W 123°02'0 0.0
2014-Aug-14 16:34N 49°09' W 123°02'0 0.0
2014-Aug-14 15:34N 49°09' W 123°02'0 0.0
2014-Aug-14 14:34N 49°09' W 123°02'4 4.3
2014-Aug-14 13:34N 49°06' W 123°08'9 8.9
2014-Aug-14 12:33N 49°06' W 123°21'10 9.6
2014-Aug-14 11:33N 49°10' W 123°35'10 9.7
2014-Aug-14 10:33N 49°13' W 123°49'5 5.2
2014-Aug-14 09:34N 49°10' W 123°56'0 0.0
2014-Aug-14 08:34N 49°10' W 123°56'7 6.7
2014-Aug-14 07:34N 49°13' W 123°46'9 9.4
2014-Aug-14 06:33N 49°10' W 123°33'10 9.9
2014-Aug-14 05:34N 49°06' W 123°19'9 9.0
2014-Aug-14 04:33N 49°07' W 123°05'2 2.4
2014-Aug-14 03:34N 49°09' W 123°02'0 0.0
2014-Aug-14 02:34N 49°09' W 123°02'0 0.0
2014-Aug-14 01:33N 49°09' W 123°02'0 0.0
2014-Aug-14 00:33N 49°09' W 123°02'0 0.0
2014-Aug-13 23:33N 49°09' W 123°02'0 0.0
2014-Aug-13 22:34N 49°09' W 123°02'0 0.0
2014-Aug-13 21:34N 49°09' W 123°02'0 0.0
2014-Aug-13 20:34N 49°09' W 123°02'0 0.0
2014-Aug-13 19:33N 49°09' W 123°02'0 0.0
2014-Aug-13 18:34N 49°09' W 123°02'0 0.0
2014-Aug-13 17:33N 49°09' W 123°02'0 0.0
2014-Aug-13 16:34N 49°09' W 123°02'0 0.0
2014-Aug-13 15:34N 49°09' W 123°02'0 0.0
2014-Aug-13 14:34N 49°09' W 123°02'5 4.9
2014-Aug-13 13:34N 49°07' W 123°09'9 8.9
2014-Aug-13 12:33N 49°07' W 123°23'9 9.3
2014-Aug-13 11:34N 49°10' W 123°36'9 9.5
2014-Aug-13 10:34N 49°13' W 123°50'5 4.8
2014-Aug-13 09:33N 49°10' W 123°56'0 0.0
2014-Aug-13 08:34N 49°10' W 123°56'5 4.9
2014-Aug-13 07:33N 49°12' W 123°49'10 9.7
2014-Aug-13 06:34N 49°10' W 123°35'9 9.5
2014-Aug-13 05:34N 49°07' W 123°21'9 9.1
2014-Aug-13 04:34N 49°07' W 123°07'4 3.8
2014-Aug-13 03:33N 49°09' W 123°02'0 0.0
2014-Aug-13 02:33N 49°09' W 123°02'0 0.0
2014-Aug-13 01:33N 49°09' W 123°02'0 0.0
2014-Aug-13 00:34N 49°09' W 123°02'0 0.0
2014-Aug-12 23:34N 49°09' W 123°02'0 0.0
2014-Aug-12 22:34N 49°09' W 123°02'0 0.0
2014-Aug-12 21:34N 49°09' W 123°02'0 0.0
2014-Aug-12 20:34N 49°09' W 123°02'0 0.0
2014-Aug-12 19:33N 49°09' W 123°02'0 0.0
2014-Aug-12 18:34N 49°09' W 123°02'0 0.0
2014-Aug-12 17:34N 49°09' W 123°02'0 0.0
2014-Aug-12 16:33N 49°09' W 123°02'0 0.0
2014-Aug-12 15:34N 49°09' W 123°02'0 0.0
2014-Aug-12 14:34N 49°09' W 123°02'4 4.3
2014-Aug-12 13:34N 49°06' W 123°08'9 9.1
2014-Aug-12 12:34N 49°07' W 123°22'10 9.8
2014-Aug-12 11:34N 49°10' W 123°36'9 9.4
2014-Aug-12 10:34N 49°13' W 123°50'5 5.0
2014-Aug-12 09:33N 49°10' W 123°56'0 0.0
2014-Aug-12 08:33N 49°10' W 123°56'6 6.1
2014-Aug-12 07:34N 49°13' W 123°48'10 9.9
2014-Aug-12 06:33N 49°10' W 123°33'9 9.2
2014-Aug-12 05:33N 49°06' W 123°20'10 9.7
2014-Aug-12 04:34N 49°07' W 123°06'3 2.8
2014-Aug-12 03:34N 49°09' W 123°02'0 0.0
2014-Aug-12 02:34N 49°09' W 123°02'0 0.0
2014-Aug-12 01:32N 49°09' W 123°02'0 0.0
2014-Aug-12 00:32N 49°09' W 123°02'0 0.0
2014-Aug-11 23:32N 49°09' W 123°02'0 0.0
2014-Aug-11 22:32N 49°09' W 123°02'0 0.0
2014-Aug-11 21:32N 49°09' W 123°02'0 0.0
2014-Aug-11 20:32N 49°09' W 123°02'0 0.0
2014-Aug-11 19:32N 49°09' W 123°02'0 0.0
2014-Aug-11 18:32N 49°09' W 123°02'0 0.0
2014-Aug-11 17:32N 49°09' W 123°02'0 0.0
2014-Aug-11 16:32N 49°09' W 123°02'0 0.0
2014-Aug-11 15:32N 49°09' W 123°02'0 0.0
2014-Aug-11 14:32N 49°09' W 123°02'0 0.0
2014-Aug-11 13:32N 49°09' W 123°02'0 0.0
2014-Aug-11 12:32N 49°09' W 123°02'0 0.0
2014-Aug-11 11:32N 49°09' W 123°02'0 0.0
2014-Aug-11 10:32N 49°09' W 123°02'0 0.0
2014-Aug-11 09:32N 49°09' W 123°02'0 0.0
2014-Aug-11 08:32N 49°09' W 123°02'0 0.0
2014-Aug-11 07:32N 49°09' W 123°02'0 0.0
2014-Aug-11 06:32N 49°09' W 123°02'0 0.0
2014-Aug-11 05:32N 49°09' W 123°02'0 0.0
2014-Aug-11 04:32N 49°09' W 123°02'0 0.0
2014-Aug-11 03:32N 49°09' W 123°02'0 0.0
2014-Aug-11 02:32N 49°09' W 123°02'0 0.0
2014-Aug-11 01:29N 49°09' W 123°02'0 0.0
2014-Aug-11 00:32N 49°09' W 123°02'0 0.0
2014-Aug-10 23:32N 49°09' W 123°02'0 0.0
2014-Aug-10 22:32N 49°09' W 123°02'0 0.0
2014-Aug-10 21:32N 49°09' W 123°02'0 0.0
2014-Aug-10 20:32N 49°09' W 123°02'  
Track history (hours):
 
Tides and Currents Weather Stations Pressure Air Temp Water Temp Dewpoint Dewpoint Depression Visibility Wind Speed Wind Dir Waves Ship Positions

Arctic Taglu

Last reported at 2014-Aug-20 19:28 UTC. Time now 2014-Aug-20 20:30 UTC.
Position N 49°09' W 123°02'.

Length 33 m; draft 6 m.

Type: Tug. MMSI: 316003483.

Date/timePositionNaut miles runAvg speedWind from/ knotsBaromVisibWave heightAir tempDewpointWater temp
2014-Aug-20 19:28N 49°09' W 123°02'0 0.0
2014-Aug-20 18:31N 49°09' W 123°02'0 0.0
2014-Aug-20 17:31N 49°09' W 123°02'0 0.0
2014-Aug-20 16:31N 49°09' W 123°02'0 0.0
2014-Aug-20 15:33N 49°09' W 123°02'0 0.0
2014-Aug-20 14:33N 49°09' W 123°02'5 5.0
2014-Aug-20 13:33N 49°07' W 123°09'6 5.9
2014-Aug-20 12:33N 49°06' W 123°18'1010.1
2014-Aug-20 11:33N 49°09' W 123°33'1111.1
2014-Aug-20 10:33N 49°13' W 123°49'5 5.2
2014-Aug-20 09:33N 49°10' W 123°56'0 0.0
2014-Aug-20 08:33N 49°10' W 123°56'5 5.1
2014-Aug-20 07:33N 49°13' W 123°50'9 8.9
2014-Aug-20 06:34N 49°10' W 123°37'10 9.7
2014-Aug-20 05:34N 49°07' W 123°23'1010.1
2014-Aug-20 04:34N 49°07' W 123°07'4 3.8
2014-Aug-20 03:33N 49°09' W 123°02'0 0.0
2014-Aug-20 02:33N 49°09' W 123°02'0 0.0
2014-Aug-20 01:33N 49°09' W 123°02'0 0.0
2014-Aug-20 00:33N 49°09' W 123°02'0 0.0
2014-Aug-19 23:33N 49°09' W 123°02'0 0.0
2014-Aug-19 22:33N 49°09' W 123°02'0 0.0
2014-Aug-19 21:33N 49°09' W 123°02'0 0.0
2014-Aug-19 20:33N 49°09' W 123°02'0 0.0
2014-Aug-19 19:33N 49°09' W 123°02'0 0.0
2014-Aug-19 18:33N 49°09' W 123°02'0 0.0
2014-Aug-19 17:33N 49°09' W 123°02'0 0.0
2014-Aug-19 16:33N 49°09' W 123°02'0 0.0
2014-Aug-19 15:33N 49°09' W 123°02'0 0.0
2014-Aug-19 14:34N 49°09' W 123°02'4 4.2
2014-Aug-19 13:33N 49°07' W 123°08'6 5.7
2014-Aug-19 12:33N 49°07' W 123°17'9 9.3
2014-Aug-19 11:33N 49°08' W 123°31'1111.4
2014-Aug-19 10:33N 49°12' W 123°47'6 6.3
2014-Aug-19 09:33N 49°10' W 123°56'0 0.0
2014-Aug-19 08:33N 49°10' W 123°56'6 6.2
2014-Aug-19 07:33N 49°13' W 123°48'9 8.8
2014-Aug-19 06:33N 49°10' W 123°35'9 9.4
2014-Aug-19 05:33N 49°07' W 123°21'10 9.8
2014-Aug-19 04:33N 49°07' W 123°06'3 3.3
2014-Aug-19 03:33N 49°09' W 123°02'0 0.0
2014-Aug-19 02:33N 49°09' W 123°02'0 0.0
2014-Aug-19 01:32N 49°09' W 123°02'0 0.0
2014-Aug-19 00:32N 49°09' W 123°02'0 0.0
2014-Aug-18 23:32N 49°09' W 123°02'0 0.0
2014-Aug-18 22:32N 49°09' W 123°02'0 0.0
2014-Aug-18 21:32N 49°09' W 123°02'0 0.0
2014-Aug-18 20:32N 49°09' W 123°02'0 0.0
2014-Aug-18 19:32N 49°09' W 123°02'0 0.0
2014-Aug-18 18:32N 49°09' W 123°02'0 0.0
2014-Aug-18 17:32N 49°09' W 123°02'0 0.0
2014-Aug-18 16:32N 49°09' W 123°02'0 0.0
2014-Aug-18 15:32N 49°09' W 123°02'0 0.0
2014-Aug-18 14:32N 49°09' W 123°02'0 0.0
2014-Aug-18 13:32N 49°09' W 123°02'0 0.0
2014-Aug-18 12:32N 49°09' W 123°02'0 0.0
2014-Aug-18 11:27N 49°09' W 123°02'0 0.0
2014-Aug-18 10:32N 49°09' W 123°02'0 0.0
2014-Aug-18 09:29N 49°09' W 123°02'0 0.0
2014-Aug-18 08:32N 49°09' W 123°02'0 0.0
2014-Aug-18 07:32N 49°09' W 123°02'0 0.0
2014-Aug-18 06:32N 49°09' W 123°02'0 0.0
2014-Aug-18 05:33N 49°09' W 123°02'0 0.0
2014-Aug-18 04:32N 49°09' W 123°02'0 0.0
2014-Aug-18 03:29N 49°09' W 123°02'0 0.0
2014-Aug-18 02:32N 49°09' W 123°02'0 0.0
2014-Aug-18 01:32N 49°09' W 123°02'0 0.0
2014-Aug-18 00:29N 49°09' W 123°02'0 0.0
2014-Aug-17 18:32N 49°09' W 123°02'0 0.0
2014-Aug-17 17:32N 49°09' W 123°02'0 0.0
2014-Aug-17 16:32N 49°09' W 123°02'0 0.0
2014-Aug-17 15:32N 49°09' W 123°02'0 0.0
2014-Aug-17 14:32N 49°09' W 123°02'0 0.0
2014-Aug-17 13:32N 49°09' W 123°02'0 0.0
2014-Aug-17 12:32N 49°09' W 123°02'0 0.0
2014-Aug-17 11:32N 49°09' W 123°02'0 0.0
2014-Aug-17 10:32N 49°09' W 123°02'0 0.0
2014-Aug-17 09:32N 49°09' W 123°02'0 0.0
2014-Aug-17 08:32N 49°09' W 123°02'0 0.0
2014-Aug-17 07:32N 49°09' W 123°02'0 0.0
2014-Aug-17 06:32N 49°09' W 123°02'0 0.0
2014-Aug-17 05:32N 49°09' W 123°02'0 0.0
2014-Aug-17 04:32N 49°09' W 123°02'0 0.0
2014-Aug-17 03:32N 49°09' W 123°02'0 0.0
2014-Aug-17 02:26N 49°09' W 123°02'0 0.0
2014-Aug-17 01:32N 49°09' W 123°02'0 0.0
2014-Aug-17 00:32N 49°09' W 123°02'0 0.0
2014-Aug-16 23:32N 49°09' W 123°02'0 0.0
2014-Aug-16 22:32N 49°09' W 123°02'0 0.0
2014-Aug-16 21:32N 49°09' W 123°02'0 0.0
2014-Aug-16 20:32N 49°09' W 123°02'0 0.0
2014-Aug-16 19:32N 49°09' W 123°02'0 0.0
2014-Aug-16 18:32N 49°09' W 123°02'0 0.0
2014-Aug-16 17:32N 49°09' W 123°02'0 0.0
2014-Aug-16 16:32N 49°09' W 123°02'0 0.0
2014-Aug-16 15:32N 49°09' W 123°02'0 0.0
2014-Aug-16 14:34N 49°09' W 123°02'5 4.8
2014-Aug-16 13:34N 49°06' W 123°09'8 7.6
2014-Aug-16 12:33N 49°06' W 123°20'9 9.4
2014-Aug-16 11:34N 49°09' W 123°34'1010.0
2014-Aug-16 10:33N 49°13' W 123°48'6 5.8
2014-Aug-16 09:34N 49°10' W 123°56'0 0.0
2014-Aug-16 08:33N 49°10' W 123°56'7 6.6
2014-Aug-16 07:33N 49°13' W 123°47'10 9.7
2014-Aug-16 06:34N 49°10' W 123°33'10 9.9
2014-Aug-16 05:33N 49°06' W 123°19'9 8.8
2014-Aug-16 04:33N 49°07' W 123°05'3 2.6
2014-Aug-16 03:34N 49°09' W 123°02'0 0.0
2014-Aug-16 02:33N 49°09' W 123°02'0 0.0
2014-Aug-16 01:34N 49°09' W 123°02'0 0.0
2014-Aug-16 00:33N 49°09' W 123°02'0 0.0
2014-Aug-15 23:34N 49°09' W 123°02'0 0.0
2014-Aug-15 22:34N 49°09' W 123°02'0 0.0
2014-Aug-15 21:34N 49°09' W 123°02'0 0.0
2014-Aug-15 20:33N 49°09' W 123°02'0 0.0
2014-Aug-15 19:34N 49°09' W 123°02'0 0.0
2014-Aug-15 18:33N 49°09' W 123°02'0 0.0
2014-Aug-15 17:34N 49°09' W 123°02'0 0.0
2014-Aug-15 16:33N 49°09' W 123°02'0 0.0
2014-Aug-15 15:34N 49°09' W 123°02'0 0.0
2014-Aug-15 14:34N 49°09' W 123°02'4 3.6
2014-Aug-15 13:34N 49°07' W 123°07'8 8.2
2014-Aug-15 12:34N 49°06' W 123°19'10 9.7
2014-Aug-15 11:33N 49°09' W 123°33'1010.0
2014-Aug-15 10:33N 49°13' W 123°48'6 5.9
2014-Aug-15 09:34N 49°10' W 123°56'0 0.0
2014-Aug-15 08:34N 49°10' W 123°56'7 6.8
2014-Aug-15 07:34N 49°12' W 123°46'10 9.6
2014-Aug-15 06:34N 49°09' W 123°31'9 9.5
2014-Aug-15 05:34N 49°07' W 123°17'9 8.6
2014-Aug-15 04:34N 49°07' W 123°04'2 1.8
2014-Aug-15 03:33N 49°09' W 123°02'0 0.0
2014-Aug-15 02:34N 49°09' W 123°02'0 0.0
2014-Aug-15 01:33N 49°09' W 123°02'0 0.0
2014-Aug-15 00:34N 49°09' W 123°02'0 0.0
2014-Aug-14 23:34N 49°09' W 123°02'0 0.0
2014-Aug-14 22:34N 49°09' W 123°02'0 0.0
2014-Aug-14 21:33N 49°09' W 123°02'0 0.0
2014-Aug-14 20:34N 49°09' W 123°02'0 0.0
2014-Aug-14 19:34N 49°09' W 123°02'0 0.0
2014-Aug-14 18:33N 49°09' W 123°02'0 0.0
2014-Aug-14 17:34N 49°09' W 123°02'0 0.0
2014-Aug-14 16:34N 49°09' W 123°02'0 0.0
2014-Aug-14 15:34N 49°09' W 123°02'0 0.0
2014-Aug-14 14:34N 49°09' W 123°02'4 4.3
2014-Aug-14 13:34N 49°06' W 123°08'9 8.9
2014-Aug-14 12:33N 49°06' W 123°21'10 9.6
2014-Aug-14 11:33N 49°10' W 123°35'10 9.7
2014-Aug-14 10:33N 49°13' W 123°49'5 5.2
2014-Aug-14 09:34N 49°10' W 123°56'0 0.0
2014-Aug-14 08:34N 49°10' W 123°56'7 6.7
2014-Aug-14 07:34N 49°13' W 123°46'9 9.4
2014-Aug-14 06:33N 49°10' W 123°33'10 9.9
2014-Aug-14 05:34N 49°06' W 123°19'9 9.0
2014-Aug-14 04:33N 49°07' W 123°05'2 2.4
2014-Aug-14 03:34N 49°09' W 123°02'0 0.0
2014-Aug-14 02:34N 49°09' W 123°02'0 0.0
2014-Aug-14 01:33N 49°09' W 123°02'0 0.0
2014-Aug-14 00:33N 49°09' W 123°02'0 0.0
2014-Aug-13 23:33N 49°09' W 123°02'0 0.0
2014-Aug-13 22:34N 49°09' W 123°02'0 0.0
2014-Aug-13 21:34N 49°09' W 123°02'0 0.0
2014-Aug-13 20:34N 49°09' W 123°02'0 0.0
2014-Aug-13 19:33N 49°09' W 123°02'0 0.0
2014-Aug-13 18:34N 49°09' W 123°02'0 0.0
2014-Aug-13 17:33N 49°09' W 123°02'0 0.0
2014-Aug-13 16:34N 49°09' W 123°02'0 0.0
2014-Aug-13 15:34N 49°09' W 123°02'0 0.0
2014-Aug-13 14:34N 49°09' W 123°02'5 4.9
2014-Aug-13 13:34N 49°07' W 123°09'9 8.9
2014-Aug-13 12:33N 49°07' W 123°23'9 9.3
2014-Aug-13 11:34N 49°10' W 123°36'9 9.5
2014-Aug-13 10:34N 49°13' W 123°50'5 4.8
2014-Aug-13 09:33N 49°10' W 123°56'0 0.0
2014-Aug-13 08:34N 49°10' W 123°56'5 4.9
2014-Aug-13 07:33N 49°12' W 123°49'10 9.7
2014-Aug-13 06:34N 49°10' W 123°35'9 9.5
2014-Aug-13 05:34N 49°07' W 123°21'9 9.1
2014-Aug-13 04:34N 49°07' W 123°07'4 3.8
2014-Aug-13 03:33N 49°09' W 123°02'0 0.0
2014-Aug-13 02:33N 49°09' W 123°02'0 0.0
2014-Aug-13 01:33N 49°09' W 123°02'0 0.0
2014-Aug-13 00:34N 49°09' W 123°02'0 0.0
2014-Aug-12 23:34N 49°09' W 123°02'0 0.0
2014-Aug-12 22:34N 49°09' W 123°02'0 0.0
2014-Aug-12 21:34N 49°09' W 123°02'0 0.0
2014-Aug-12 20:34N 49°09' W 123°02'0 0.0
2014-Aug-12 19:33N 49°09' W 123°02'0 0.0
2014-Aug-12 18:34N 49°09' W 123°02'0 0.0
2014-Aug-12 17:34N 49°09' W 123°02'0 0.0
2014-Aug-12 16:33N 49°09' W 123°02'0 0.0
2014-Aug-12 15:34N 49°09' W 123°02'0 0.0
2014-Aug-12 14:34N 49°09' W 123°02'4 4.3
2014-Aug-12 13:34N 49°06' W 123°08'9 9.1
2014-Aug-12 12:34N 49°07' W 123°22'10 9.8
2014-Aug-12 11:34N 49°10' W 123°36'9 9.4
2014-Aug-12 10:34N 49°13' W 123°50'5 5.0
2014-Aug-12 09:33N 49°10' W 123°56'0 0.0
2014-Aug-12 08:33N 49°10' W 123°56'6 6.1
2014-Aug-12 07:34N 49°13' W 123°48'10 9.9
2014-Aug-12 06:33N 49°10' W 123°33'9 9.2
2014-Aug-12 05:33N 49°06' W 123°20'10 9.7
2014-Aug-12 04:34N 49°07' W 123°06'3 2.8
2014-Aug-12 03:34N 49°09' W 123°02'0 0.0
2014-Aug-12 02:34N 49°09' W 123°02'0 0.0
2014-Aug-12 01:32N 49°09' W 123°02'0 0.0
2014-Aug-12 00:32N 49°09' W 123°02'0 0.0
2014-Aug-11 23:32N 49°09' W 123°02'0 0.0
2014-Aug-11 22:32N 49°09' W 123°02'0 0.0
2014-Aug-11 21:32N 49°09' W 123°02'0 0.0
2014-Aug-11 20:32N 49°09' W 123°02'0 0.0
2014-Aug-11 19:32N 49°09' W 123°02'0 0.0
2014-Aug-11 18:32N 49°09' W 123°02'0 0.0
2014-Aug-11 17:32N 49°09' W 123°02'0 0.0
2014-Aug-11 16:32N 49°09' W 123°02'0 0.0
2014-Aug-11 15:32N 49°09' W 123°02'0 0.0
2014-Aug-11 14:32N 49°09' W 123°02'0 0.0
2014-Aug-11 13:32N 49°09' W 123°02'0 0.0
2014-Aug-11 12:32N 49°09' W 123°02'0 0.0
2014-Aug-11 11:32N 49°09' W 123°02'0 0.0
2014-Aug-11 10:32N 49°09' W 123°02'0 0.0
2014-Aug-11 09:32N 49°09' W 123°02'0 0.0
2014-Aug-11 08:32N 49°09' W 123°02'0 0.0
2014-Aug-11 07:32N 49°09' W 123°02'0 0.0
2014-Aug-11 06:32N 49°09' W 123°02'0 0.0
2014-Aug-11 05:32N 49°09' W 123°02'0 0.0
2014-Aug-11 04:32N 49°09' W 123°02'0 0.0
2014-Aug-11 03:32N 49°09' W 123°02'0 0.0
2014-Aug-11 02:32N 49°09' W 123°02'0 0.0
2014-Aug-11 01:29N 49°09' W 123°02'0 0.0
2014-Aug-11 00:32N 49°09' W 123°02'0 0.0
2014-Aug-10 23:32N 49°09' W 123°02'0 0.0
2014-Aug-10 22:32N 49°09' W 123°02'0 0.0
2014-Aug-10 21:32N 49°09' W 123°02'0 0.0
2014-Aug-10 20:32N 49°09' W 123°02'  

Dump ship's entire track history